sensor_id;sensor_type;location;lat;lon;timestamp;P1;durP1;ratioP1;P2;durP2;ratioP2
19741;SDS011;10028;48.822;11.854;2024-03-25T00:01:29;3.10;;;3.00;;
19741;SDS011;10028;48.822;11.854;2024-03-25T00:03:55;3.13;;;3.03;;
19741;SDS011;10028;48.822;11.854;2024-03-25T00:06:21;3.30;;;3.20;;
19741;SDS011;10028;48.822;11.854;2024-03-25T00:08:48;3.60;;;3.50;;
19741;SDS011;10028;48.822;11.854;2024-03-25T00:11:14;3.43;;;3.33;;
19741;SDS011;10028;48.822;11.854;2024-03-25T00:13:40;3.10;;;3.00;;
19741;SDS011;10028;48.822;11.854;2024-03-25T00:16:06;3.00;;;2.90;;
19741;SDS011;10028;48.822;11.854;2024-03-25T00:18:33;3.50;;;3.40;;
19741;SDS011;10028;48.822;11.854;2024-03-25T00:20:59;3.37;;;3.27;;
19741;SDS011;10028;48.822;11.854;2024-03-25T00:23:25;3.43;;;3.33;;
19741;SDS011;10028;48.822;11.854;2024-03-25T00:25:52;3.00;;;2.90;;
19741;SDS011;10028;48.822;11.854;2024-03-25T00:28:18;3.20;;;3.10;;
19741;SDS011;10028;48.822;11.854;2024-03-25T00:30:45;3.30;;;3.20;;
19741;SDS011;10028;48.822;11.854;2024-03-25T00:33:11;3.30;;;3.20;;
19741;SDS011;10028;48.822;11.854;2024-03-25T00:35:37;3.10;;;3.00;;
19741;SDS011;10028;48.822;11.854;2024-03-25T00:38:04;3.10;;;3.00;;
19741;SDS011;10028;48.822;11.854;2024-03-25T00:40:30;3.30;;;3.20;;
19741;SDS011;10028;48.822;11.854;2024-03-25T00:42:57;3.20;;;3.10;;
19741;SDS011;10028;48.822;11.854;2024-03-25T00:45:23;3.37;;;3.27;;
19741;SDS011;10028;48.822;11.854;2024-03-25T00:47:56;3.23;;;3.13;;
19741;SDS011;10028;48.822;11.854;2024-03-25T00:50:22;3.63;;;3.53;;
19741;SDS011;10028;48.822;11.854;2024-03-25T00:52:48;3.37;;;3.27;;
19741;SDS011;10028;48.822;11.854;2024-03-25T00:55:15;3.63;;;3.53;;
19741;SDS011;10028;48.822;11.854;2024-03-25T00:57:41;3.50;;;3.40;;
19741;SDS011;10028;48.822;11.854;2024-03-25T01:00:07;3.60;;;3.50;;
19741;SDS011;10028;48.822;11.854;2024-03-25T01:02:34;3.47;;;3.37;;
19741;SDS011;10028;48.822;11.854;2024-03-25T01:05:00;3.43;;;3.33;;
19741;SDS011;10028;48.822;11.854;2024-03-25T01:07:27;3.20;;;3.10;;
19741;SDS011;10028;48.822;11.854;2024-03-25T01:09:54;3.63;;;3.53;;
19741;SDS011;10028;48.822;11.854;2024-03-25T01:12:20;3.40;;;3.30;;
19741;SDS011;10028;48.822;11.854;2024-03-25T01:14:46;3.30;;;3.20;;
19741;SDS011;10028;48.822;11.854;2024-03-25T01:17:12;3.30;;;3.20;;
19741;SDS011;10028;48.822;11.854;2024-03-25T01:19:39;3.40;;;3.30;;
19741;SDS011;10028;48.822;11.854;2024-03-25T01:22:05;3.10;;;3.00;;
19741;SDS011;10028;48.822;11.854;2024-03-25T01:24:31;3.30;;;3.20;;
19741;SDS011;10028;48.822;11.854;2024-03-25T01:26:57;3.43;;;3.33;;
19741;SDS011;10028;48.822;11.854;2024-03-25T01:29:24;3.30;;;3.20;;
19741;SDS011;10028;48.822;11.854;2024-03-25T01:31:50;3.50;;;3.40;;
19741;SDS011;10028;48.822;11.854;2024-03-25T01:34:16;3.27;;;3.17;;
19741;SDS011;10028;48.822;11.854;2024-03-25T01:36:43;3.50;;;3.40;;
19741;SDS011;10028;48.822;11.854;2024-03-25T01:39:09;3.20;;;3.10;;
19741;SDS011;10028;48.822;11.854;2024-03-25T01:41:35;3.10;;;3.00;;
19741;SDS011;10028;48.822;11.854;2024-03-25T01:44:01;3.43;;;3.33;;
19741;SDS011;10028;48.822;11.854;2024-03-25T01:46:28;3.47;;;3.37;;
19741;SDS011;10028;48.822;11.854;2024-03-25T01:48:54;3.30;;;3.20;;
19741;SDS011;10028;48.822;11.854;2024-03-25T01:51:23;3.60;;;3.50;;
19741;SDS011;10028;48.822;11.854;2024-03-25T01:53:51;3.20;;;3.10;;
19741;SDS011;10028;48.822;11.854;2024-03-25T01:56:19;3.67;;;3.57;;
19741;SDS011;10028;48.822;11.854;2024-03-25T01:58:45;3.00;;;2.90;;
19741;SDS011;10028;48.822;11.854;2024-03-25T02:01:12;3.10;;;3.00;;
19741;SDS011;10028;48.822;11.854;2024-03-25T02:03:42;3.50;;;3.40;;
19741;SDS011;10028;48.822;11.854;2024-03-25T02:06:15;3.43;;;3.33;;
19741;SDS011;10028;48.822;11.854;2024-03-25T02:08:43;3.27;;;3.17;;
19741;SDS011;10028;48.822;11.854;2024-03-25T02:11:09;3.43;;;3.33;;
19741;SDS011;10028;48.822;11.854;2024-03-25T02:13:39;3.10;;;3.00;;
19741;SDS011;10028;48.822;11.854;2024-03-25T02:16:05;3.10;;;3.00;;
19741;SDS011;10028;48.822;11.854;2024-03-25T02:18:32;2.97;;;2.87;;
19741;SDS011;10028;48.822;11.854;2024-03-25T02:20:59;3.30;;;3.20;;
19741;SDS011;10028;48.822;11.854;2024-03-25T02:23:25;3.00;;;2.90;;
19741;SDS011;10028;48.822;11.854;2024-03-25T02:25:52;3.17;;;3.07;;
19741;SDS011;10028;48.822;11.854;2024-03-25T02:28:18;3.20;;;3.10;;
19741;SDS011;10028;48.822;11.854;2024-03-25T02:30:45;3.23;;;3.13;;
19741;SDS011;10028;48.822;11.854;2024-03-25T02:33:11;3.77;;;3.67;;
19741;SDS011;10028;48.822;11.854;2024-03-25T02:35:38;3.43;;;3.33;;
19741;SDS011;10028;48.822;11.854;2024-03-25T02:38:06;3.30;;;3.20;;
19741;SDS011;10028;48.822;11.854;2024-03-25T02:40:32;3.77;;;3.67;;
19741;SDS011;10028;48.822;11.854;2024-03-25T02:42:59;3.00;;;2.90;;
19741;SDS011;10028;48.822;11.854;2024-03-25T02:45:25;3.43;;;3.33;;
19741;SDS011;10028;48.822;11.854;2024-03-25T02:47:52;3.40;;;3.30;;
19741;SDS011;10028;48.822;11.854;2024-03-25T02:50:18;3.20;;;3.10;;
19741;SDS011;10028;48.822;11.854;2024-03-25T02:52:45;3.17;;;3.07;;
19741;SDS011;10028;48.822;11.854;2024-03-25T02:55:11;3.70;;;3.60;;
19741;SDS011;10028;48.822;11.854;2024-03-25T02:57:37;3.20;;;3.10;;
19741;SDS011;10028;48.822;11.854;2024-03-25T03:00:04;3.20;;;3.10;;
19741;SDS011;10028;48.822;11.854;2024-03-25T03:02:31;3.23;;;3.13;;
19741;SDS011;10028;48.822;11.854;2024-03-25T03:04:57;3.10;;;3.00;;
19741;SDS011;10028;48.822;11.854;2024-03-25T03:07:24;3.13;;;3.03;;
19741;SDS011;10028;48.822;11.854;2024-03-25T03:09:51;3.30;;;3.20;;
19741;SDS011;10028;48.822;11.854;2024-03-25T03:12:17;3.10;;;3.00;;
19741;SDS011;10028;48.822;11.854;2024-03-25T03:14:43;3.10;;;3.00;;
19741;SDS011;10028;48.822;11.854;2024-03-25T03:17:09;3.60;;;3.50;;
19741;SDS011;10028;48.822;11.854;2024-03-25T03:19:36;3.13;;;3.03;;
19741;SDS011;10028;48.822;11.854;2024-03-25T03:22:02;3.17;;;3.07;;
19741;SDS011;10028;48.822;11.854;2024-03-25T03:24:28;3.00;;;2.90;;
19741;SDS011;10028;48.822;11.854;2024-03-25T03:26:54;3.00;;;2.90;;
19741;SDS011;10028;48.822;11.854;2024-03-25T03:29:21;3.27;;;3.17;;
19741;SDS011;10028;48.822;11.854;2024-03-25T03:31:47;3.10;;;3.00;;
19741;SDS011;10028;48.822;11.854;2024-03-25T03:34:13;3.10;;;3.00;;
19741;SDS011;10028;48.822;11.854;2024-03-25T03:36:39;3.20;;;3.10;;
19741;SDS011;10028;48.822;11.854;2024-03-25T03:39:06;3.20;;;3.10;;
19741;SDS011;10028;48.822;11.854;2024-03-25T03:41:35;3.27;;;3.17;;
19741;SDS011;10028;48.822;11.854;2024-03-25T03:44:02;3.20;;;3.10;;
19741;SDS011;10028;48.822;11.854;2024-03-25T03:46:28;3.20;;;3.10;;
19741;SDS011;10028;48.822;11.854;2024-03-25T03:48:55;3.20;;;3.10;;
19741;SDS011;10028;48.822;11.854;2024-03-25T03:51:21;3.00;;;2.90;;
19741;SDS011;10028;48.822;11.854;2024-03-25T03:53:47;3.40;;;3.30;;
19741;SDS011;10028;48.822;11.854;2024-03-25T03:56:14;2.90;;;2.80;;
19741;SDS011;10028;48.822;11.854;2024-03-25T03:58:40;2.90;;;2.80;;
19741;SDS011;10028;48.822;11.854;2024-03-25T04:01:13;3.10;;;3.00;;
19741;SDS011;10028;48.822;11.854;2024-03-25T04:03:41;3.00;;;2.90;;
19741;SDS011;10028;48.822;11.854;2024-03-25T04:06:08;2.97;;;2.87;;
19741;SDS011;10028;48.822;11.854;2024-03-25T04:08:37;3.20;;;3.10;;
19741;SDS011;10028;48.822;11.854;2024-03-25T04:11:04;3.10;;;3.00;;
19741;SDS011;10028;48.822;11.854;2024-03-25T04:13:32;3.00;;;2.90;;
19741;SDS011;10028;48.822;11.854;2024-03-25T04:16:04;3.10;;;3.00;;
19741;SDS011;10028;48.822;11.854;2024-03-25T04:18:32;3.10;;;3.00;;
19741;SDS011;10028;48.822;11.854;2024-03-25T04:20:58;3.10;;;3.00;;
19741;SDS011;10028;48.822;11.854;2024-03-25T04:23:25;3.37;;;3.27;;
19741;SDS011;10028;48.822;11.854;2024-03-25T04:25:51;3.57;;;3.47;;
19741;SDS011;10028;48.822;11.854;2024-03-25T04:28:18;2.90;;;2.80;;
19741;SDS011;10028;48.822;11.854;2024-03-25T04:30:54;2.90;;;2.80;;
19741;SDS011;10028;48.822;11.854;2024-03-25T04:33:20;3.00;;;2.90;;
19741;SDS011;10028;48.822;11.854;2024-03-25T04:35:47;3.20;;;3.10;;
19741;SDS011;10028;48.822;11.854;2024-03-25T04:38:15;3.00;;;2.90;;
19741;SDS011;10028;48.822;11.854;2024-03-25T04:40:42;3.10;;;3.00;;
19741;SDS011;10028;48.822;11.854;2024-03-25T04:43:09;3.50;;;3.40;;
19741;SDS011;10028;48.822;11.854;2024-03-25T04:45:35;3.10;;;3.00;;
19741;SDS011;10028;48.822;11.854;2024-03-25T04:48:02;2.90;;;2.80;;
19741;SDS011;10028;48.822;11.854;2024-03-25T04:50:28;3.03;;;2.93;;
19741;SDS011;10028;48.822;11.854;2024-03-25T04:52:54;3.13;;;3.03;;
19741;SDS011;10028;48.822;11.854;2024-03-25T04:55:21;3.23;;;3.13;;
19741;SDS011;10028;48.822;11.854;2024-03-25T04:57:47;3.10;;;3.00;;
19741;SDS011;10028;48.822;11.854;2024-03-25T05:00:13;2.90;;;2.80;;
19741;SDS011;10028;48.822;11.854;2024-03-25T05:02:40;3.27;;;3.17;;
19741;SDS011;10028;48.822;11.854;2024-03-25T05:05:06;3.27;;;3.17;;
19741;SDS011;10028;48.822;11.854;2024-03-25T05:07:33;2.90;;;2.80;;
19741;SDS011;10028;48.822;11.854;2024-03-25T05:09:59;3.00;;;2.90;;
19741;SDS011;10028;48.822;11.854;2024-03-25T05:12:26;3.20;;;3.10;;
19741;SDS011;10028;48.822;11.854;2024-03-25T05:14:55;2.90;;;2.80;;
19741;SDS011;10028;48.822;11.854;2024-03-25T05:17:22;3.37;;;3.27;;
19741;SDS011;10028;48.822;11.854;2024-03-25T05:19:48;3.53;;;3.43;;
19741;SDS011;10028;48.822;11.854;2024-03-25T05:22:14;3.30;;;3.20;;
19741;SDS011;10028;48.822;11.854;2024-03-25T05:24:41;3.23;;;3.13;;
19741;SDS011;10028;48.822;11.854;2024-03-25T05:27:07;3.17;;;3.07;;
19741;SDS011;10028;48.822;11.854;2024-03-25T05:29:33;3.30;;;3.20;;
19741;SDS011;10028;48.822;11.854;2024-03-25T05:32:00;3.50;;;3.40;;
19741;SDS011;10028;48.822;11.854;2024-03-25T05:34:27;3.07;;;2.97;;
19741;SDS011;10028;48.822;11.854;2024-03-25T05:36:54;3.53;;;3.43;;
19741;SDS011;10028;48.822;11.854;2024-03-25T05:39:20;3.20;;;3.10;;
19741;SDS011;10028;48.822;11.854;2024-03-25T05:41:47;3.20;;;3.10;;
19741;SDS011;10028;48.822;11.854;2024-03-25T05:44:13;3.53;;;3.43;;
19741;SDS011;10028;48.822;11.854;2024-03-25T05:46:39;3.00;;;2.90;;
19741;SDS011;10028;48.822;11.854;2024-03-25T05:49:06;3.60;;;3.50;;
19741;SDS011;10028;48.822;11.854;2024-03-25T05:51:32;3.23;;;3.13;;
19741;SDS011;10028;48.822;11.854;2024-03-25T05:53:59;3.10;;;3.00;;
19741;SDS011;10028;48.822;11.854;2024-03-25T05:56:25;3.10;;;3.00;;
19741;SDS011;10028;48.822;11.854;2024-03-25T05:58:56;2.90;;;2.80;;
19741;SDS011;10028;48.822;11.854;2024-03-25T06:01:22;2.93;;;2.83;;
19741;SDS011;10028;48.822;11.854;2024-03-25T06:03:49;3.10;;;3.00;;
19741;SDS011;10028;48.822;11.854;2024-03-25T06:06:15;3.00;;;2.90;;
19741;SDS011;10028;48.822;11.854;2024-03-25T06:08:41;3.23;;;3.13;;
19741;SDS011;10028;48.822;11.854;2024-03-25T06:11:08;2.93;;;2.83;;
19741;SDS011;10028;48.822;11.854;2024-03-25T06:13:34;3.00;;;2.90;;
19741;SDS011;10028;48.822;11.854;2024-03-25T06:16:00;3.17;;;3.07;;
19741;SDS011;10028;48.822;11.854;2024-03-25T06:18:26;3.20;;;3.10;;
19741;SDS011;10028;48.822;11.854;2024-03-25T06:20:53;2.90;;;2.80;;
19741;SDS011;10028;48.822;11.854;2024-03-25T06:23:26;3.00;;;2.90;;
19741;SDS011;10028;48.822;11.854;2024-03-25T06:25:53;2.90;;;2.80;;
19741;SDS011;10028;48.822;11.854;2024-03-25T06:28:20;3.10;;;3.00;;
19741;SDS011;10028;48.822;11.854;2024-03-25T06:30:47;3.00;;;2.90;;
19741;SDS011;10028;48.822;11.854;2024-03-25T06:33:32;2.73;;;2.63;;
19741;SDS011;10028;48.822;11.854;2024-03-25T06:36:17;2.70;;;2.60;;
19741;SDS011;10028;48.822;11.854;2024-03-25T06:38:43;3.33;;;3.23;;
19741;SDS011;10028;48.822;11.854;2024-03-25T06:41:10;3.33;;;3.23;;
19741;SDS011;10028;48.822;11.854;2024-03-25T06:43:36;3.20;;;3.10;;
19741;SDS011;10028;48.822;11.854;2024-03-25T06:46:03;3.03;;;2.93;;
19741;SDS011;10028;48.822;11.854;2024-03-25T06:48:29;3.03;;;2.93;;
19741;SDS011;10028;48.822;11.854;2024-03-25T06:50:57;3.03;;;2.93;;
19741;SDS011;10028;48.822;11.854;2024-03-25T06:53:24;3.10;;;3.00;;
19741;SDS011;10028;48.822;11.854;2024-03-25T06:55:57;3.07;;;2.97;;
19741;SDS011;10028;48.822;11.854;2024-03-25T06:58:25;3.07;;;2.97;;
19741;SDS011;10028;48.822;11.854;2024-03-25T07:00:52;2.60;;;2.50;;
19741;SDS011;10028;48.822;11.854;2024-03-25T07:03:19;3.13;;;3.03;;
19741;SDS011;10028;48.822;11.854;2024-03-25T07:05:47;2.83;;;2.73;;
19741;SDS011;10028;48.822;11.854;2024-03-25T07:08:14;3.07;;;2.97;;
19741;SDS011;10028;48.822;11.854;2024-03-25T07:10:44;3.30;;;3.20;;
19741;SDS011;10028;48.822;11.854;2024-03-25T07:13:10;2.93;;;2.83;;
19741;SDS011;10028;48.822;11.854;2024-03-25T07:15:36;2.93;;;2.83;;
19741;SDS011;10028;48.822;11.854;2024-03-25T07:18:03;3.10;;;3.00;;
19741;SDS011;10028;48.822;11.854;2024-03-25T07:20:29;3.30;;;3.20;;
19741;SDS011;10028;48.822;11.854;2024-03-25T07:22:56;3.37;;;3.27;;
19741;SDS011;10028;48.822;11.854;2024-03-25T07:25:22;3.00;;;2.90;;
19741;SDS011;10028;48.822;11.854;2024-03-25T07:27:49;2.90;;;2.80;;
19741;SDS011;10028;48.822;11.854;2024-03-25T07:30:15;2.90;;;2.80;;
19741;SDS011;10028;48.822;11.854;2024-03-25T07:32:42;2.90;;;2.80;;
19741;SDS011;10028;48.822;11.854;2024-03-25T07:35:11;2.93;;;2.83;;
19741;SDS011;10028;48.822;11.854;2024-03-25T07:37:37;3.03;;;2.93;;
19741;SDS011;10028;48.822;11.854;2024-03-25T07:40:04;3.00;;;2.90;;
19741;SDS011;10028;48.822;11.854;2024-03-25T07:42:30;3.30;;;3.20;;
19741;SDS011;10028;48.822;11.854;2024-03-25T07:44:56;3.13;;;3.03;;
19741;SDS011;10028;48.822;11.854;2024-03-25T07:47:23;2.93;;;2.83;;
19741;SDS011;10028;48.822;11.854;2024-03-25T07:49:49;3.17;;;3.07;;
19741;SDS011;10028;48.822;11.854;2024-03-25T07:52:15;2.80;;;2.70;;
19741;SDS011;10028;48.822;11.854;2024-03-25T07:54:42;3.00;;;2.90;;
19741;SDS011;10028;48.822;11.854;2024-03-25T07:57:08;2.80;;;2.70;;
19741;SDS011;10028;48.822;11.854;2024-03-25T07:59:34;2.97;;;2.87;;
19741;SDS011;10028;48.822;11.854;2024-03-25T08:02:01;3.10;;;3.00;;
19741;SDS011;10028;48.822;11.854;2024-03-25T08:04:27;2.70;;;2.60;;
19741;SDS011;10028;48.822;11.854;2024-03-25T08:06:54;2.70;;;2.60;;
19741;SDS011;10028;48.822;11.854;2024-03-25T08:09:20;2.90;;;2.80;;
19741;SDS011;10028;48.822;11.854;2024-03-25T08:11:47;2.90;;;2.80;;
19741;SDS011;10028;48.822;11.854;2024-03-25T08:14:13;2.60;;;2.50;;
19741;SDS011;10028;48.822;11.854;2024-03-25T08:16:39;3.23;;;3.13;;
19741;SDS011;10028;48.822;11.854;2024-03-25T08:19:05;2.80;;;2.70;;
19741;SDS011;10028;48.822;11.854;2024-03-25T08:21:32;3.00;;;2.90;;
19741;SDS011;10028;48.822;11.854;2024-03-25T08:23:58;2.70;;;2.60;;
19741;SDS011;10028;48.822;11.854;2024-03-25T08:26:24;2.90;;;2.80;;
19741;SDS011;10028;48.822;11.854;2024-03-25T08:28:50;2.70;;;2.60;;
19741;SDS011;10028;48.822;11.854;2024-03-25T08:31:17;2.90;;;2.80;;
19741;SDS011;10028;48.822;11.854;2024-03-25T08:33:43;3.03;;;2.93;;
19741;SDS011;10028;48.822;11.854;2024-03-25T08:36:09;2.87;;;2.77;;
19741;SDS011;10028;48.822;11.854;2024-03-25T08:38:36;2.90;;;2.80;;
19741;SDS011;10028;48.822;11.854;2024-03-25T08:41:02;2.80;;;2.70;;
19741;SDS011;10028;48.822;11.854;2024-03-25T08:43:29;2.70;;;2.60;;
19741;SDS011;10028;48.822;11.854;2024-03-25T08:45:55;2.80;;;2.70;;
19741;SDS011;10028;48.822;11.854;2024-03-25T08:48:22;2.80;;;2.70;;
19741;SDS011;10028;48.822;11.854;2024-03-25T08:50:48;2.80;;;2.70;;
19741;SDS011;10028;48.822;11.854;2024-03-25T08:53:15;2.90;;;2.80;;
19741;SDS011;10028;48.822;11.854;2024-03-25T08:55:47;2.77;;;2.67;;
19741;SDS011;10028;48.822;11.854;2024-03-25T08:58:14;2.80;;;2.70;;
19741;SDS011;10028;48.822;11.854;2024-03-25T09:00:41;2.60;;;2.50;;
19741;SDS011;10028;48.822;11.854;2024-03-25T09:03:07;2.80;;;2.70;;
19741;SDS011;10028;48.822;11.854;2024-03-25T09:05:34;2.70;;;2.60;;
19741;SDS011;10028;48.822;11.854;2024-03-25T09:08:00;3.13;;;3.03;;
19741;SDS011;10028;48.822;11.854;2024-03-25T09:10:26;2.87;;;2.77;;
19741;SDS011;10028;48.822;11.854;2024-03-25T09:13:25;2.60;;;2.50;;
19741;SDS011;10028;48.822;11.854;2024-03-25T09:15:52;2.73;;;2.63;;
19741;SDS011;10028;48.822;11.854;2024-03-25T09:18:19;2.60;;;2.50;;
19741;SDS011;10028;48.822;11.854;2024-03-25T09:20:45;2.50;;;2.40;;
19741;SDS011;10028;48.822;11.854;2024-03-25T09:23:11;2.57;;;2.47;;
19741;SDS011;10028;48.822;11.854;2024-03-25T09:25:38;2.50;;;2.40;;
19741;SDS011;10028;48.822;11.854;2024-03-25T09:28:04;2.60;;;2.50;;
19741;SDS011;10028;48.822;11.854;2024-03-25T09:30:32;2.70;;;2.60;;
19741;SDS011;10028;48.822;11.854;2024-03-25T09:32:58;2.40;;;2.30;;
19741;SDS011;10028;48.822;11.854;2024-03-25T09:35:24;2.50;;;2.40;;
19741;SDS011;10028;48.822;11.854;2024-03-25T09:37:50;2.70;;;2.60;;
19741;SDS011;10028;48.822;11.854;2024-03-25T09:40:17;2.77;;;2.67;;
19741;SDS011;10028;48.822;11.854;2024-03-25T09:42:47;2.67;;;2.57;;
19741;SDS011;10028;48.822;11.854;2024-03-25T09:45:17;2.40;;;2.30;;
19741;SDS011;10028;48.822;11.854;2024-03-25T09:47:47;2.40;;;2.30;;
19741;SDS011;10028;48.822;11.854;2024-03-25T09:50:13;2.67;;;2.57;;
19741;SDS011;10028;48.822;11.854;2024-03-25T09:52:50;3.23;;;3.13;;
19741;SDS011;10028;48.822;11.854;2024-03-25T09:55:16;2.40;;;2.30;;
19741;SDS011;10028;48.822;11.854;2024-03-25T09:57:43;2.50;;;2.40;;
19741;SDS011;10028;48.822;11.854;2024-03-25T10:00:10;2.60;;;2.50;;
19741;SDS011;10028;48.822;11.854;2024-03-25T10:02:37;2.70;;;2.60;;
19741;SDS011;10028;48.822;11.854;2024-03-25T10:05:04;2.40;;;2.30;;
19741;SDS011;10028;48.822;11.854;2024-03-25T10:07:31;2.40;;;2.30;;
19741;SDS011;10028;48.822;11.854;2024-03-25T10:09:57;2.43;;;2.33;;
19741;SDS011;10028;48.822;11.854;2024-03-25T10:12:24;2.60;;;2.50;;
19741;SDS011;10028;48.822;11.854;2024-03-25T10:14:50;3.37;;;3.27;;
19741;SDS011;10028;48.822;11.854;2024-03-25T10:17:16;2.30;;;2.20;;
19741;SDS011;10028;48.822;11.854;2024-03-25T10:19:43;2.40;;;2.30;;
19741;SDS011;10028;48.822;11.854;2024-03-25T10:22:09;2.33;;;2.23;;
19741;SDS011;10028;48.822;11.854;2024-03-25T10:24:39;2.60;;;2.50;;
19741;SDS011;10028;48.822;11.854;2024-03-25T10:27:10;2.57;;;2.47;;
19741;SDS011;10028;48.822;11.854;2024-03-25T10:29:42;2.60;;;2.50;;
19741;SDS011;10028;48.822;11.854;2024-03-25T10:32:08;2.40;;;2.30;;
19741;SDS011;10028;48.822;11.854;2024-03-25T10:34:34;2.20;;;2.10;;
19741;SDS011;10028;48.822;11.854;2024-03-25T10:37:01;3.27;;;3.17;;
19741;SDS011;10028;48.822;11.854;2024-03-25T10:39:27;2.33;;;2.23;;
19741;SDS011;10028;48.822;11.854;2024-03-25T10:41:57;2.40;;;2.30;;
19741;SDS011;10028;48.822;11.854;2024-03-25T10:44:27;2.53;;;2.43;;
19741;SDS011;10028;48.822;11.854;2024-03-25T10:47:04;2.13;;;2.10;;
19741;SDS011;10028;48.822;11.854;2024-03-25T10:49:40;2.50;;;2.40;;
19741;SDS011;10028;48.822;11.854;2024-03-25T10:52:21;2.57;;;2.47;;
19741;SDS011;10028;48.822;11.854;2024-03-25T10:54:48;2.40;;;2.30;;
19741;SDS011;10028;48.822;11.854;2024-03-25T10:57:15;2.30;;;2.20;;
19741;SDS011;10028;48.822;11.854;2024-03-25T10:59:45;2.43;;;2.33;;
19741;SDS011;10028;48.822;11.854;2024-03-25T11:02:11;2.10;;;2.10;;
19741;SDS011;10028;48.822;11.854;2024-03-25T11:04:38;2.33;;;2.23;;
19741;SDS011;10028;48.822;11.854;2024-03-25T11:07:06;2.50;;;2.40;;
19741;SDS011;10028;48.822;11.854;2024-03-25T11:09:36;2.17;;;2.13;;
19741;SDS011;10028;48.822;11.854;2024-03-25T11:12:02;2.10;;;2.10;;
19741;SDS011;10028;48.822;11.854;2024-03-25T11:14:29;2.43;;;2.33;;
19741;SDS011;10028;48.822;11.854;2024-03-25T11:16:57;2.30;;;2.20;;
19741;SDS011;10028;48.822;11.854;2024-03-25T11:19:26;2.30;;;2.20;;
19741;SDS011;10028;48.822;11.854;2024-03-25T11:21:54;2.50;;;2.40;;
19741;SDS011;10028;48.822;11.854;2024-03-25T11:24:27;2.10;;;2.10;;
19741;SDS011;10028;48.822;11.854;2024-03-25T11:26:53;2.17;;;2.17;;
19741;SDS011;10028;48.822;11.854;2024-03-25T11:29:20;2.30;;;2.20;;
19741;SDS011;10028;48.822;11.854;2024-03-25T11:31:46;2.30;;;2.20;;
19741;SDS011;10028;48.822;11.854;2024-03-25T11:34:14;2.40;;;2.30;;
19741;SDS011;10028;48.822;11.854;2024-03-25T11:36:41;2.10;;;2.10;;
19741;SDS011;10028;48.822;11.854;2024-03-25T11:39:07;2.00;;;2.00;;
19741;SDS011;10028;48.822;11.854;2024-03-25T11:41:41;2.60;;;2.50;;
19741;SDS011;10028;48.822;11.854;2024-03-25T11:44:08;2.60;;;2.50;;
19741;SDS011;10028;48.822;11.854;2024-03-25T11:46:38;2.60;;;2.50;;
19741;SDS011;10028;48.822;11.854;2024-03-25T11:49:11;2.30;;;2.20;;
19741;SDS011;10028;48.822;11.854;2024-03-25T11:51:39;2.50;;;2.40;;
19741;SDS011;10028;48.822;11.854;2024-03-25T11:54:10;2.50;;;2.40;;
19741;SDS011;10028;48.822;11.854;2024-03-25T11:56:36;2.37;;;2.27;;
19741;SDS011;10028;48.822;11.854;2024-03-25T11:59:06;2.30;;;2.20;;
19741;SDS011;10028;48.822;11.854;2024-03-25T12:01:32;2.07;;;2.07;;
19741;SDS011;10028;48.822;11.854;2024-03-25T12:04:09;2.30;;;2.20;;
19741;SDS011;10028;48.822;11.854;2024-03-25T12:06:36;2.10;;;2.10;;
19741;SDS011;10028;48.822;11.854;2024-03-25T12:09:02;2.30;;;2.20;;
19741;SDS011;10028;48.822;11.854;2024-03-25T12:11:47;2.40;;;2.30;;
19741;SDS011;10028;48.822;11.854;2024-03-25T12:14:13;2.10;;;2.10;;
19741;SDS011;10028;48.822;11.854;2024-03-25T12:16:41;2.17;;;2.17;;
19741;SDS011;10028;48.822;11.854;2024-03-25T12:19:08;2.10;;;2.10;;
19741;SDS011;10028;48.822;11.854;2024-03-25T12:21:34;2.40;;;2.30;;
19741;SDS011;10028;48.822;11.854;2024-03-25T12:24:00;2.30;;;2.20;;
19741;SDS011;10028;48.822;11.854;2024-03-25T12:26:26;2.63;;;2.53;;
19741;SDS011;10028;48.822;11.854;2024-03-25T12:28:53;2.30;;;2.20;;
19741;SDS011;10028;48.822;11.854;2024-03-25T12:31:19;2.23;;;2.20;;
19741;SDS011;10028;48.822;11.854;2024-03-25T12:33:49;2.00;;;2.00;;
19741;SDS011;10028;48.822;11.854;2024-03-25T12:36:15;2.40;;;2.30;;
19741;SDS011;10028;48.822;11.854;2024-03-25T12:38:41;2.17;;;2.13;;
19741;SDS011;10028;48.822;11.854;2024-03-25T12:41:09;2.17;;;2.17;;
19741;SDS011;10028;48.822;11.854;2024-03-25T12:43:43;2.27;;;2.20;;
19741;SDS011;10028;48.822;11.854;2024-03-25T12:46:13;2.00;;;2.00;;
19741;SDS011;10028;48.822;11.854;2024-03-25T12:48:39;2.10;;;2.10;;
19741;SDS011;10028;48.822;11.854;2024-03-25T12:51:11;3.43;;;3.30;;
19741;SDS011;10028;48.822;11.854;2024-03-25T12:53:38;2.13;;;2.13;;
19741;SDS011;10028;48.822;11.854;2024-03-25T12:56:04;1.97;;;1.97;;
19741;SDS011;10028;48.822;11.854;2024-03-25T12:58:31;1.90;;;1.90;;
19741;SDS011;10028;48.822;11.854;2024-03-25T13:00:57;2.00;;;2.00;;
19741;SDS011;10028;48.822;11.854;2024-03-25T13:03:23;1.90;;;1.90;;
19741;SDS011;10028;48.822;11.854;2024-03-25T13:05:49;2.13;;;2.13;;
19741;SDS011;10028;48.822;11.854;2024-03-25T13:08:16;2.53;;;2.43;;
19741;SDS011;10028;48.822;11.854;2024-03-25T13:10:42;1.70;;;1.70;;
19741;SDS011;10028;48.822;11.854;2024-03-25T13:13:09;2.00;;;2.00;;
19741;SDS011;10028;48.822;11.854;2024-03-25T13:15:35;2.13;;;2.13;;
19741;SDS011;10028;48.822;11.854;2024-03-25T13:18:01;2.10;;;2.10;;
19741;SDS011;10028;48.822;11.854;2024-03-25T13:20:27;2.20;;;2.20;;
19741;SDS011;10028;48.822;11.854;2024-03-25T13:22:54;2.10;;;2.10;;
19741;SDS011;10028;48.822;11.854;2024-03-25T13:25:25;1.87;;;1.87;;
19741;SDS011;10028;48.822;11.854;2024-03-25T13:27:54;2.00;;;2.00;;
19741;SDS011;10028;48.822;11.854;2024-03-25T13:30:20;2.40;;;2.30;;
19741;SDS011;10028;48.822;11.854;2024-03-25T13:32:50;2.00;;;2.00;;
19741;SDS011;10028;48.822;11.854;2024-03-25T13:35:16;1.80;;;1.80;;
19741;SDS011;10028;48.822;11.854;2024-03-25T13:37:42;2.00;;;2.00;;
19741;SDS011;10028;48.822;11.854;2024-03-25T13:40:08;1.90;;;1.90;;
19741;SDS011;10028;48.822;11.854;2024-03-25T13:42:36;2.17;;;2.17;;
19741;SDS011;10028;48.822;11.854;2024-03-25T13:45:04;2.10;;;2.10;;
19741;SDS011;10028;48.822;11.854;2024-03-25T13:47:30;1.97;;;1.97;;
19741;SDS011;10028;48.822;11.854;2024-03-25T13:50:00;2.40;;;2.30;;
19741;SDS011;10028;48.822;11.854;2024-03-25T13:52:29;2.00;;;2.00;;
19741;SDS011;10028;48.822;11.854;2024-03-25T13:54:56;1.90;;;1.90;;
19741;SDS011;10028;48.822;11.854;2024-03-25T13:57:23;1.80;;;1.80;;
19741;SDS011;10028;48.822;11.854;2024-03-25T13:59:52;2.13;;;2.13;;
19741;SDS011;10028;48.822;11.854;2024-03-25T14:02:18;2.07;;;2.07;;
19741;SDS011;10028;48.822;11.854;2024-03-25T14:04:44;2.00;;;2.00;;
19741;SDS011;10028;48.822;11.854;2024-03-25T14:07:11;2.00;;;2.00;;
19741;SDS011;10028;48.822;11.854;2024-03-25T14:09:37;1.90;;;1.90;;
19741;SDS011;10028;48.822;11.854;2024-03-25T14:12:03;2.57;;;2.50;;
19741;SDS011;10028;48.822;11.854;2024-03-25T14:14:30;1.97;;;1.97;;
19741;SDS011;10028;48.822;11.854;2024-03-25T14:16:56;2.00;;;2.00;;
19741;SDS011;10028;48.822;11.854;2024-03-25T14:19:22;1.80;;;1.80;;
19741;SDS011;10028;48.822;11.854;2024-03-25T14:21:49;2.00;;;2.00;;
19741;SDS011;10028;48.822;11.854;2024-03-25T14:24:15;2.07;;;2.07;;
19741;SDS011;10028;48.822;11.854;2024-03-25T14:26:42;2.63;;;2.53;;
19741;SDS011;10028;48.822;11.854;2024-03-25T14:29:08;1.87;;;1.87;;
19741;SDS011;10028;48.822;11.854;2024-03-25T14:31:34;1.80;;;1.80;;
19741;SDS011;10028;48.822;11.854;2024-03-25T14:34:00;1.90;;;1.90;;